Station Historical Data
Daily Summary for November 30, 2017 Units:  Metric    English   Both
« Previous Day
Next Day »
Daily Weekly Monthly Yearly Custom
  High: Low: Average:
Temperature: 19.6 °C 9 °C 13.9 °C
Dew Point: 16.1 °C 7.9 °C 12.3 °C
Humidity: 94% 75% 90%
Wind Speed: 5.6km/h 0km/h 0.3km/h
Wind Gust: 3.7km/h - -
Wind- - West
Pressure: 1024.3 hPa 1019.5 hPa -
Precipitation: 1.78 mm    
Historical Graphs
 
 
Tabular Data for November 30, 2017
Time Temperature Dew Point Pressure Wind Wind Speed Wind Gust Humidity Rainfall Rate (Hourly) Conditions
00:03 10.3 °C 9.3 °C 1024.3 hPa Calm     93% 0 mm
00:13 10.2 °C 8.9 °C 1024.3 hPa Calm     92% 0 mm
00:24 10.2 °C 9.1 °C 1023.9 hPa Calm     93% 0 mm
00:29 10.3 °C 9.2 °C 1023.9 hPa Calm     93% 0 mm
00:34 10.3 °C 9.2 °C 1023.9 hPa Calm     93% 0 mm
00:44 10.3 °C 9.2 °C 1023.9 hPa Calm     93% 0 mm
00:49 10.4 °C 9.3 °C 1023.9 hPa Calm     93% 0 mm
00:54 10.4 °C 9.3 °C 1023.9 hPa Calm     93% 0 mm
00:59 10.4 °C 9.3 °C 1023.9 hPa Calm     93% 0 mm
01:04 10.4 °C 9.3 °C 1023.9 hPa Calm     93% 0 mm
01:09 10.3 °C 9.3 °C 1023.9 hPa Calm     93% 0 mm
01:14 10.3 °C 9.2 °C 1023.9 hPa Calm     93% 0 mm
01:24 10.1 °C 9.1 °C 1023.6 hPa Calm     93% 0 mm
01:35 10 °C 8.9 °C 1023.6 hPa Calm     93% 0 mm CLR
01:40 9.9 °C 8.9 °C 1023.6 hPa Calm     93% 0 mm CLR
01:45 10 °C 8.9 °C 1023.9 hPa Calm     93% 0 mm
01:50 10 °C 8.9 °C 1023.9 hPa Calm     93% 0 mm
01:55 10.1 °C 9 °C 1023.6 hPa Calm     93% 0 mm
02:05 10.1 °C 9 °C 1023.9 hPa Calm     93% 0 mm BKN
02:10 10.1 °C 9 °C 1023.6 hPa Calm     93% 0 mm BKN
02:15 10 °C 8.9 °C 1023.6 hPa Calm     93% 0 mm BKN
02:20 10 °C 8.9 °C 1023.6 hPa Calm     93% 0 mm BKN
02:25 9.9 °C 8.9 °C 1023.6 hPa Calm     93% 0 mm SCT
02:30 9.9 °C 8.8 °C 1023.6 hPa Calm     93% 0 mm SCT
02:35 9.8 °C 8.8 °C 1023.6 hPa Calm     93% 0 mm BKN
02:46 9.7 °C 8.7 °C 1023.6 hPa Calm     93% 0 mm BKN
02:51 9.7 °C 8.6 °C 1023.6 hPa Calm     93% 0 mm
03:01 9.5 °C 8.4 °C 1023.6 hPa Calm     93% 0 mm
03:06 9.5 °C 8.4 °C 1023.9 hPa Calm     93% 0 mm
03:11 9.5 °C 8.4 °C 1023.6 hPa Calm     93% 0 mm
03:16 9.6 °C 8.5 °C 1023.6 hPa Calm     93% 0 mm
03:21 9.6 °C 8.6 °C 1023.6 hPa Calm     93% 0 mm
03:26 9.7 °C 8.6 °C 1023.6 hPa Calm     93% 0 mm
03:31 9.7 °C 8.6 °C 1023.6 hPa Calm     93% 0 mm
03:42 9.7 °C 8.7 °C 1023.6 hPa Calm     93% 0 mm
03:47 9.7 °C 8.7 °C 1023.6 hPa Calm     93% 0 mm
03:52 9.8 °C 8.7 °C 1023.9 hPa Calm     93% 0 mm
04:23 9.7 °C 8.6 °C 1023.6 hPa Calm     93% 0 mm CLR
04:33 9.5 °C 8.4 °C 1023.6 hPa Calm     93% 0 mm SCT
04:38 9.4 °C 8.4 °C 1023.6 hPa Calm     93% 0 mm SCT
04:43 9.4 °C 8.3 °C 1023.6 hPa Calm     93% 0 mm SCT
04:48 9.4 °C 8.3 °C 1023.2 hPa Calm     93% 0 mm SCT
04:53 9.3 °C 8.3 °C 1023.2 hPa Calm     93% 0 mm SCT
04:58 9.3 °C 8.2 °C 1023.2 hPa Calm     93% 0 mm SCT
05:03 9.2 °C 8.2 °C 1023.2 hPa Calm     93% 0 mm FEW
05:08 9.2 °C 8.1 °C 1023.2 hPa Calm     93% 0 mm FEW
05:14 9.2 °C 8.1 °C 1023.6 hPa Calm     93% 0 mm FEW
05:19 9.1 °C 8.1 °C 1023.6 hPa Calm     93% 0 mm FEW
05:34 9.1 °C 8.1 °C 1023.6 hPa Calm     93% 0 mm FEW
05:39 9.1 °C 8.1 °C 1023.2 hPa Calm     93% 0 mm FEW
05:44 9.1 °C 8.1 °C 1023.2 hPa Calm     93% 0 mm FEW
05:49 9.1 °C 8.1 °C 1023.2 hPa Calm     93% 0 mm FEW
05:55 9.1 °C 8.1 °C 1023.2 hPa Calm     93% 0 mm FEW
06:00 9.1 °C 8.1 °C 1023.2 hPa Calm     93% 0 mm FEW
06:05 9.2 °C 8.1 °C 1023.2 hPa Calm     93% 0 mm CLR
06:10 9.2 °C 8.1 °C 1023.2 hPa Calm     93% 0 mm CLR
06:15 9.2 °C 8.1 °C 1023.2 hPa Calm     93% 0 mm CLR
06:20 9.1 °C 8.1 °C 1023.2 hPa Calm     93% 0 mm CLR
06:30 9.1 °C 8.1 °C 1023.2 hPa Calm     93% 0 mm BKN
06:35 9.1 °C 8 °C 1023.2 hPa Calm     93% 0 mm BKN
06:40 9 °C 7.9 °C 1023.6 hPa Calm     93% 0 mm BKN
06:45 9 °C 7.9 °C 1023.2 hPa Calm     93% 0 mm BKN
06:56 9.3 °C 8.4 °C 1023.6 hPa Calm     94% 0 mm BKN
07:06 9.4 °C 8.4 °C 1023.2 hPa Calm     94% 0 mm -RA
07:16 9.6 °C 8.6 °C 1023.6 hPa Calm     94% 0 mm -RA
07:21 9.6 °C 8.7 °C 1023.6 hPa Calm     94% 0 mm -RA
07:26 9.7 °C 8.7 °C 1023.6 hPa Calm     94% 0 mm -RA
07:36 9.8 °C 8.9 °C 1023.6 hPa Calm     94% 0 mm BKN
07:41 9.9 °C 8.9 °C 1023.6 hPa Calm     94% 0 mm BKN
07:46 9.9 °C 9 °C 1023.6 hPa Calm     94% 0 mm BKN
07:51 9.9 °C 9 °C 1023.6 hPa Calm     94% 0 mm BKN
07:56 9.9 °C 9 °C 1023.6 hPa Calm     94% 0 mm BKN
08:12 10.1 °C 9.1 °C 1023.6 hPa Calm     94% 0 mm BKN
08:22 10.2 °C 9.3 °C 1023.6 hPa Calm     94% 0 mm -RA
08:27 10.3 °C 9.3 °C 1023.6 hPa Calm     94% 0 mm -RA
08:32 10.4 °C 9.4 °C 1023.6 hPa Calm     94% 0 mm -RA
08:37 10.6 °C 9.6 °C 1023.6 hPa Calm     94% 0 mm -RA
08:42 10.7 °C 9.8 °C 1023.6 hPa Calm     94% 0 mm -RA
08:52 11.1 °C 10.1 °C 1023.6 hPa Calm     94% 0 mm -RA
08:57 11.2 °C 10.3 °C 1023.6 hPa Calm     94% 0 mm -RA
09:02 11.3 °C 10.4 °C 1023.6 hPa Calm     94% 0 mm -RA
09:08 11.4 °C 10.5 °C 1023.6 hPa Calm     94% 0 mm -RA
09:13 11.6 °C 10.6 °C 1023.6 hPa Calm     94% 0.25 mm -DZ
09:28 11.9 °C 11 °C 1023.6 hPa Calm     94% 0.51 mm -DZ
09:33 12 °C 11.1 °C 1023.6 hPa Calm     94% 0.76 mm -RA
09:38 12.1 °C 11.2 °C 1023.6 hPa Calm     94% 1.02 mm -RA
09:43 12.2 °C 11.2 °C 1023.6 hPa Calm     94% 1.27 mm -RA
09:48 12.2 °C 11.3 °C 1023.6 hPa Calm     94% 1.27 mm -RA
09:53 12.2 °C 11.2 °C 1023.6 hPa Calm     94% 1.52 mm -RA
09:58 12.2 °C 11.3 °C 1023.6 hPa Calm     94% 1.52 mm -RA
10:03 12.3 °C 11.4 °C 1023.9 hPa Calm     94% 1.78 mm BKN
10:08 12.4 °C 11.4 °C 1023.6 hPa Calm     94% 1.78 mm BKN
10:14 12.4 °C 11.5 °C 1023.6 hPa Calm     94% 1.52 mm BKN
10:19 12.6 °C 11.7 °C 1023.6 hPa Calm     94% 1.52 mm BKN
10:34 13.1 °C 12.2 °C 1023.2 hPa Calm     94% 1.02 mm BKN
10:35 13.1 °C 12.2 °C 1023.2 hPa Calm     94% 0 mm BKN
10:40 13.4 °C 12.4 °C 1023.2 hPa Calm     94% 0 mm BKN
10:45 13.9 °C 12.9 °C 1023.2 hPa Calm     94% 0.51 mm BKN
10:50 14.5 °C 13.6 °C 1023.2 hPa Calm     94% 0.51 mm BKN
10:55 14.9 °C 13.9 °C 1023.2 hPa NNW 1.9 km/h   94% 0.25 mm BKN
11:10 15.8 °C 14.9 °C 1022.9 hPa NW 1.9 km/h   94% 0 mm BKN
11:16 16.3 °C 15.4 °C 1022.6 hPa NW 1.9 km/h   94% 0 mm BKN
11:21 16.7 °C 15.3 °C 1022.6 hPa Calm     92% 0 mm BKN
11:26 17 °C 15.3 °C 1022.6 hPa NW 1.9 km/h   90% 0 mm BKN
11:31 17.1 °C 15.1 °C 1022.6 hPa NW 1.9 km/h 1.9 km/h 88% 0 mm BKN
11:36 17.2 °C 15.2 °C 1022.2 hPa NW 1.9 km/h   88% 0 mm BKN
11:41 17.5 °C 15.1 °C 1022.2 hPa NW 1.9 km/h   86% 0 mm BKN
11:46 17.6 °C 15.2 °C 1022.2 hPa WNW 1.9 km/h 1.9 km/h 86% 0 mm BKN
11:51 17.8 °C 15.2 °C 1022.2 hPa WNW 1.9 km/h 1.9 km/h 85% 0 mm BKN
11:56 18.1 °C 15.7 °C 1022.2 hPa NNW 1.9 km/h   86% 0 mm BKN
12:01 18.4 °C 15.8 °C 1021.9 hPa NNW 1.9 km/h 1.9 km/h 85% 0 mm BKN
12:06 18.8 °C 16.1 °C 1021.9 hPa NNW 1.9 km/h   84% 0 mm BKN
12:11 19.1 °C 15.7 °C 1021.9 hPa NW 1.9 km/h 2.4 km/h 81% 0 mm BKN
12:22 19.3 °C 15.7 °C 1021.6 hPa NNE 5.6 km/h   80% 0 mm BKN
12:27 19.3 °C 15.8 °C 1021.6 hPa North 3.7 km/h   80% 0 mm BKN
12:32 19.6 °C 15.6 °C 1021.6 hPa West 1.9 km/h   78% 0 mm BKN
12:37 19.6 °C 15.4 °C 1021.6 hPa West 1.9 km/h   77% 0 mm BKN
12:42 19.5 °C 15.2 °C 1021.2 hPa NW 3.7 km/h   76% 0 mm BKN
12:47 19.4 °C 15.1 °C 1021.2 hPa North 3.7 km/h 3.7 km/h 76% 0 mm BKN
13:02 19.4 °C 14.8 °C 1021.2 hPa WNW 5.6 km/h   75% 0 mm BKN
13:12 19.4 °C 15.1 °C 1020.9 hPa North 1.9 km/h 1.9 km/h 76% 0 mm BKN
13:17 19.3 °C 15.2 °C 1020.9 hPa NNE 1.9 km/h   77% 0 mm BKN
13:23 19.3 °C 15.3 °C 1020.9 hPa NNE 1.9 km/h   78% 0 mm BKN
13:33 19.3 °C 15.3 °C 1020.5 hPa NNW 1.9 km/h   78% 0 mm BKN
13:43 19.3 °C 15.3 °C 1020.5 hPa WNW 1.9 km/h   78% 0 mm BKN
13:48 19.3 °C 15 °C 1020.2 hPa WNW 1.9 km/h   76% 0 mm BKN
13:53 19.4 °C 15.3 °C 1020.2 hPa NW 1.9 km/h 1.9 km/h 77% 0 mm BKN
13:58 19.4 °C 15.3 °C 1020.2 hPa NW 1.9 km/h   77% 0 mm BKN
14:03 19.4 °C 15.3 °C 1020.2 hPa NW 1.9 km/h   77% 0 mm -RA
14:08 19.4 °C 15.3 °C 1020.2 hPa NNW 1.9 km/h   77% 0 mm -RA
14:13 19.4 °C 15.4 °C 1020.2 hPa Calm     78% 0 mm -RA
14:18 19.3 °C 15.3 °C 1020.2 hPa Calm     78% 0 mm -RA
14:23 19.2 °C 15.4 °C 1019.9 hPa Calm     79% 0 mm -RA
14:28 19 °C 15.4 °C 1019.9 hPa Calm     80% 0 mm OVC
14:34 18.9 °C 15.4 °C 1019.9 hPa Calm     80% 0 mm OVC
14:39 18.8 °C 15.3 °C 1019.9 hPa Calm     80% 0 mm OVC
14:44 18.7 °C 15.2 °C 1019.9 hPa Calm     80% 0 mm OVC
14:54 18.6 °C 15.1 °C 1019.9 hPa Calm     80% 0 mm OVC
14:59 18.5 °C 15.2 °C 1019.9 hPa Calm     81% 0 mm OVC
15:09 18.4 °C 15.1 °C 1019.9 hPa Calm     81% 0 mm OVC
15:14 18.4 °C 15.3 °C 1019.9 hPa Calm     82% 0 mm OVC
15:20 18.3 °C 15.2 °C 1019.5 hPa Calm     82% 0 mm OVC
15:25 18.3 °C 15.2 °C 1019.5 hPa Calm     82% 0 mm OVC
15:30 18.2 °C 15.3 °C 1019.9 hPa NNW 1.9 km/h   83% 0 mm OVC
15:35 18.2 °C 15.2 °C 1019.9 hPa NNE 1.9 km/h 1.9 km/h 83% 0 mm OVC
15:41 18.1 °C 15.1 °C 1019.9 hPa NE 1.9 km/h   83% 0 mm OVC
15:46 17.9 °C 15.2 °C 1019.9 hPa East 1.9 km/h   84% 0 mm OVC
15:51 17.8 °C 15.3 °C 1019.9 hPa SSE 1.9 km/h   85% 0 mm OVC
15:56 17.7 °C 15.2 °C 1019.9 hPa SW 1.9 km/h   85% 0 mm OVC
16:01 17.6 °C 15.2 °C 1019.9 hPa Calm     86% 0 mm -RA
16:11 17.4 °C 15.2 °C 1019.9 hPa Calm     87% 0 mm -RA
16:21 17.2 °C 15.3 °C 1019.9 hPa Calm     89% 0 mm -RA
16:26 17.1 °C 15.4 °C 1019.9 hPa Calm     90% 0 mm -DZ
16:31 17 °C 15.3 °C 1019.5 hPa Calm     90% 0 mm -DZ
16:36 16.9 °C 15.3 °C 1019.5 hPa Calm     90% 0 mm -DZ
16:42 16.9 °C 15.2 °C 1019.5 hPa Calm     90% 0 mm -DZ
16:47 16.9 °C 15.2 °C 1019.5 hPa Calm     90% 0 mm -DZ
16:57 16.7 °C 15.2 °C 1019.9 hPa Calm     91% 0 mm OVC
17:02 16.7 °C 15.2 °C 1019.5 hPa Calm     91% 0 mm BKN
17:07 16.6 °C 15.1 °C 1019.5 hPa Calm     91% 0 mm BKN
17:12 16.6 °C 15.1 °C 1019.5 hPa Calm     91% 0 mm BKN
17:17 16.6 °C 15.1 °C 1019.5 hPa Calm     91% 0 mm BKN
17:22 16.5 °C 15 °C 1019.5 hPa Calm     91% 0 mm BKN
17:27 16.4 °C 14.9 °C 1019.5 hPa Calm     91% 0 mm BKN
17:32 16.3 °C 15.1 °C 1019.5 hPa Calm     92% 0 mm BKN
17:47 16.2 °C 14.9 °C 1019.9 hPa Calm     92% 0 mm BKN
17:53 16.2 °C 14.9 °C 1019.5 hPa Calm     92% 0 mm BKN
17:58 16.1 °C 14.8 °C 1019.5 hPa Calm     92% 0 mm BKN
18:03 16.1 °C 14.8 °C 1019.5 hPa Calm     92% 0 mm BKN
18:08 15.9 °C 14.7 °C 1019.5 hPa Calm     92% 0 mm BKN
18:13 15.8 °C 14.6 °C 1019.5 hPa Calm     92% 0 mm BKN
18:23 15.6 °C 14.3 °C 1019.9 hPa Calm     92% 0 mm BKN
18:28 15.5 °C 14.2 °C 1019.9 hPa Calm     92% 0 mm BKN
18:43 15.1 °C 13.8 °C 1019.9 hPa WSW 1.9 km/h   92% 0 mm BKN
18:54 15 °C 13.7 °C 1020.2 hPa Calm     92% 0 mm BKN
18:59 14.9 °C 13.7 °C 1020.2 hPa Calm     92% 0 mm BKN
19:04 14.9 °C 13.6 °C 1020.2 hPa Calm     92% 0 mm BKN
19:09 14.9 °C 13.6 °C 1020.2 hPa Calm     92% 0 mm BKN
19:14 14.8 °C 13.6 °C 1020.5 hPa Calm     92% 0 mm BKN
19:19 14.8 °C 13.5 °C 1020.2 hPa Calm     92% 0 mm BKN
19:24 14.7 °C 13.4 °C 1020.2 hPa Calm     92% 0 mm OVC
19:29 14.7 °C 13.4 °C 1020.2 hPa Calm     92% 0 mm OVC
19:34 14.7 °C 13.4 °C 1020.2 hPa Calm     92% 0 mm OVC
19:39 14.7 °C 13.4 °C 1020.2 hPa Calm     92% 0 mm OVC
19:44 14.7 °C 13.4 °C 1020.2 hPa Calm     92% 0 mm OVC
19:49 14.7 °C 13.4 °C 1020.2 hPa Calm     92% 0 mm OVC
19:54 14.7 °C 13.6 °C 1020.2 hPa Calm     93% 0 mm OVC
19:59 14.8 °C 13.7 °C 1020.2 hPa Calm     93% 0 mm OVC
20:05 14.8 °C 13.7 °C 1020.5 hPa Calm     93% 0 mm OVC
20:10 14.8 °C 13.7 °C 1020.5 hPa Calm     93% 0 mm OVC
20:15 14.9 °C 13.8 °C 1020.2 hPa Calm     93% 0 mm OVC
20:20 15 °C 13.9 °C 1020.2 hPa Calm     93% 0 mm OVC
20:25 15 °C 13.9 °C 1020.5 hPa Calm     93% 0 mm OVC
20:35 15.1 °C 13.9 °C 1020.5 hPa Calm     93% 0 mm OVC
20:40 15.1 °C 13.9 °C 1020.5 hPa Calm     93% 0 mm OVC
20:45 15.1 °C 14 °C 1020.5 hPa Calm     93% 0 mm OVC
20:50 15.2 °C 14.1 °C 1020.5 hPa Calm     93% 0 mm OVC
20:55 15.2 °C 14.1 °C 1020.5 hPa Calm     93% 0 mm OVC
21:00 15.2 °C 14.1 °C 1020.5 hPa Calm     93% 0 mm OVC
21:05 15.2 °C 14.1 °C 1020.5 hPa Calm     93% 0 mm BKN
21:16 15.2 °C 14.1 °C 1020.5 hPa Calm     93% 0 mm BKN
21:21 15.2 °C 14.1 °C 1020.5 hPa Calm     93% 0 mm BKN
21:26 15.2 °C 14.1 °C 1020.5 hPa Calm     93% 0 mm BKN
21:31 15.2 °C 14.1 °C 1020.5 hPa Calm     93% 0 mm BKN
21:41 15.2 °C 14.1 °C 1020.5 hPa Calm     93% 0 mm OVC
21:46 15.2 °C 14.1 °C 1020.5 hPa Calm     93% 0 mm OVC
21:51 15.2 °C 14.1 °C 1020.5 hPa Calm     93% 0 mm OVC
21:56 15.1 °C 14 °C 1020.5 hPa Calm     93% 0 mm OVC
22:06 15.1 °C 14 °C 1020.5 hPa Calm     93% 0 mm -DZ
22:12 15.1 °C 14 °C 1020.5 hPa Calm     93% 0 mm -DZ
22:19 15.1 °C 14 °C 1020.5 hPa Calm     93% 0 mm -DZ
22:21 15.1 °C 14 °C 1020.5 hPa Calm     93% 0 mm -DZ
22:24 15.1 °C 14 °C 1020.5 hPa Calm     93% 0 mm -DZ
22:25 15.1 °C 14 °C 1020.5 hPa Calm     93% 0 mm -DZ
22:30 15.2 °C 14.1 °C 1020.5 hPa Calm     93% 0 mm -DZ
22:35 15.2 °C 14.1 °C 1020.5 hPa Calm     93% 0 mm -DZ
22:36 15.2 °C 14.1 °C 1020.5 hPa Calm     93% 0 mm -DZ
22:41 15.2 °C 14.1 °C 1020.5 hPa Calm     93% 0 mm -DZ
22:47 15.2 °C 14.1 °C 1020.5 hPa Calm     93% 0 mm OVC
22:52 15.2 °C 14.1 °C 1020.5 hPa Calm     93% 0 mm OVC
22:57 15.2 °C 14.1 °C 1020.5 hPa Calm     93% 0 mm OVC
22:59 15.2 °C 14.1 °C 1020.5 hPa Calm     93% 0 mm OVC
23:04 15.2 °C 14.1 °C 1020.5 hPa Calm     93% 0 mm OVC
23:09 15.2 °C 14.1 °C 1020.5 hPa Calm     93% 0 mm OVC
23:14 15.2 °C 14.1 °C 1020.5 hPa Calm     93% 0 mm OVC
23:24 15.2 °C 14.1 °C 1020.5 hPa Calm     93% 0 mm OVC
23:29 15.2 °C 14.1 °C 1020.5 hPa Calm     93% 0 mm OVC
23:39 15.2 °C 14.1 °C 1020.2 hPa Calm     93% 0 mm OVC
23:49 15.2 °C 14.1 °C 1020.2 hPa Calm     93% 0 mm OVC
23:55 15.2 °C 14.1 °C 1020.2 hPa Calm     93% 0 mm OVC
Piedmont Bend
Compliments of Weather Underground - 2 mb